createdAt,value
2019-04-30T00:00:00.355Z,9.33
2019-04-30T00:02:35.628Z,8.53
2019-04-30T00:05:05.429Z,10.97
2019-04-30T00:07:33.731Z,10.37
2019-04-30T00:10:02.114Z,9.80
2019-04-30T00:12:30.895Z,10.87
2019-04-30T00:15:00.646Z,9.17
2019-04-30T00:17:29.119Z,8.90
2019-04-30T00:19:59.808Z,10.10
2019-04-30T00:22:33.766Z,11.20
2019-04-30T00:24:57.721Z,11.30
2019-04-30T00:27:30.048Z,11.10
2019-04-30T00:29:55.976Z,11.27
2019-04-30T00:32:25.795Z,12.27
2019-04-30T00:34:55.671Z,11.87
2019-04-30T00:37:25.421Z,11.77
2019-04-30T00:39:55.585Z,10.77
2019-04-30T00:42:27.980Z,11.60
2019-04-30T00:44:55.351Z,12.60
2019-04-30T00:47:25.641Z,12.40
2019-04-30T00:49:57.542Z,11.40
2019-04-30T00:52:29.579Z,10.80
2019-04-30T00:55:00.460Z,10.53
2019-04-30T00:57:27.719Z,14.10
2019-04-30T00:59:57.168Z,9.50
2019-04-30T01:02:35.757Z,9.47
2019-04-30T01:05:22.255Z,9.50
2019-04-30T01:07:54.880Z,10.47
2019-04-30T01:10:26.844Z,10.97
2019-04-30T01:13:01.765Z,13.40
2019-04-30T01:15:29.040Z,9.33
2019-04-30T01:17:59.383Z,10.53
2019-04-30T01:20:32.731Z,9.80
2019-04-30T01:23:03.160Z,10.40
2019-04-30T01:25:31.215Z,10.10
2019-04-30T01:27:59.511Z,9.43
2019-04-30T01:30:28.505Z,9.17
2019-04-30T01:32:58.169Z,7.60
2019-04-30T01:35:30.901Z,6.60
2019-04-30T01:37:56.893Z,6.57
2019-04-30T01:40:25.151Z,8.50
2019-04-30T01:42:53.432Z,7.87
2019-04-30T01:45:23.192Z,7.37
2019-04-30T01:47:51.992Z,7.40
2019-04-30T01:50:20.266Z,8.07
2019-04-30T01:52:54.301Z,6.80
2019-04-30T01:55:33.883Z,11.77
2019-04-30T01:58:06.620Z,7.73
2019-04-30T02:00:36.600Z,8.97
2019-04-30T02:03:04.900Z,9.90
2019-04-30T02:05:33.157Z,8.03
2019-04-30T02:08:03.063Z,6.67
2019-04-30T02:10:31.438Z,8.83
2019-04-30T02:12:59.691Z,7.87
2019-04-30T02:15:29.236Z,8.03
2019-04-30T02:17:58.762Z,8.37
2019-04-30T02:20:28.720Z,8.23
2019-04-30T02:22:58.627Z,8.60
2019-04-30T02:25:29.379Z,10.70
2019-04-30T02:27:59.027Z,6.60
2019-04-30T02:30:30.996Z,6.43
2019-04-30T02:33:00.831Z,8.30
2019-04-30T02:35:40.664Z,7.23
2019-04-30T02:38:12.930Z,9.40
2019-04-30T02:40:42.524Z,7.20
2019-04-30T02:43:11.262Z,10.63
2019-04-30T02:45:40.856Z,7.27
2019-04-30T02:48:11.704Z,8.40
2019-04-30T02:50:40.258Z,10.43
2019-04-30T02:53:45.242Z,8.70
2019-04-30T02:56:13.572Z,8.93
2019-04-30T02:58:41.954Z,9.70
2019-04-30T03:01:10.420Z,11.27
2019-04-30T03:03:39.321Z,9.37
2019-04-30T03:06:11.428Z,8.53
2019-04-30T03:08:40.413Z,9.67
2019-04-30T03:11:09.726Z,8.77
2019-04-30T03:13:42.492Z,9.77
2019-04-30T03:16:09.559Z,8.80
2019-04-30T03:18:55.703Z,8.70
2019-04-30T03:21:41.998Z,10.27
2019-04-30T03:24:11.241Z,11.67
2019-04-30T03:26:40.517Z,10.57
2019-04-30T03:29:11.108Z,10.73
2019-04-30T03:31:43.823Z,9.77
2019-04-30T03:34:12.506Z,12.07
2019-04-30T03:36:40.364Z,10.30
2019-04-30T03:39:10.864Z,10.20
2019-04-30T03:41:41.229Z,12.83
2019-04-30T03:44:18.518Z,12.00
2019-04-30T03:46:40.225Z,10.57
2019-04-30T03:49:12.547Z,12.23
2019-04-30T03:51:40.304Z,14.93
2019-04-30T03:54:10.106Z,12.97
2019-04-30T03:56:39.777Z,15.67
2019-04-30T03:59:10.548Z,14.03
2019-04-30T04:01:50.046Z,14.77
2019-04-30T04:04:35.198Z,15.57
2019-04-30T04:07:23.460Z,15.20
2019-04-30T04:09:54.191Z,17.90
2019-04-30T04:12:26.206Z,14.77
2019-04-30T04:14:54.479Z,17.23
2019-04-30T04:17:23.313Z,13.90
2019-04-30T04:19:52.353Z,16.43
2019-04-30T04:22:20.920Z,15.50
2019-04-30T04:24:50.624Z,16.47
2019-04-30T04:27:19.796Z,16.93
2019-04-30T04:29:50.910Z,17.37
2019-04-30T04:32:24.109Z,15.43
2019-04-30T04:34:50.937Z,20.63
2019-04-30T04:37:20.312Z,17.00
2019-04-30T04:39:50.130Z,18.40
2019-04-30T04:42:19.521Z,15.70
2019-04-30T04:44:50.162Z,16.57
2019-04-30T04:47:19.783Z,17.40
2019-04-30T04:49:50.758Z,16.87
2019-04-30T04:52:21.393Z,19.83
2019-04-30T04:54:50.635Z,18.03
2019-04-30T04:57:21.961Z,21.80
2019-04-30T04:59:52.726Z,18.83
2019-04-30T05:02:32.127Z,20.37
2019-04-30T05:04:59.966Z,16.63
2019-04-30T05:07:28.742Z,19.53
2019-04-30T05:10:00.605Z,20.47
2019-04-30T05:12:27.233Z,20.77
2019-04-30T05:14:57.026Z,21.63
2019-04-30T05:17:25.341Z,19.83
2019-04-30T05:19:53.593Z,21.07
2019-04-30T05:22:21.975Z,18.73
2019-04-30T05:24:50.356Z,19.00
2019-04-30T05:27:19.803Z,19.10
2019-04-30T05:29:49.844Z,18.37
2019-04-30T05:32:19.681Z,19.33
2019-04-30T05:34:49.664Z,22.90
2019-04-30T05:37:18.722Z,22.07
2019-04-30T05:39:48.811Z,20.93
2019-04-30T05:42:18.480Z,24.17
2019-04-30T05:44:47.038Z,19.53
2019-04-30T05:47:15.312Z,21.87
2019-04-30T05:49:43.667Z,18.40
2019-04-30T05:52:11.932Z,19.30
2019-04-30T05:54:40.215Z,21.73
2019-04-30T05:57:09.542Z,21.77
2019-04-30T05:59:38.774Z,19.47
2019-04-30T06:02:08.905Z,24.47
2019-04-30T06:04:38.755Z,23.23
2019-04-30T06:07:08.623Z,21.20
2019-04-30T06:09:50.786Z,23.70
2019-04-30T06:12:28.365Z,23.10
2019-04-30T06:15:08.969Z,21.70
2019-04-30T06:17:39.145Z,22.33
2019-04-30T06:20:18.135Z,22.10
2019-04-30T06:22:38.639Z,20.37
2019-04-30T06:25:07.129Z,19.20
2019-04-30T06:27:35.720Z,19.37
2019-04-30T06:30:04.671Z,21.73
2019-04-30T06:32:32.935Z,22.60
2019-04-30T06:35:01.194Z,21.50
2019-04-30T06:37:31.590Z,24.47
2019-04-30T06:39:59.460Z,24.83
2019-04-30T06:42:29.255Z,22.07
2019-04-30T06:44:59.107Z,20.50
2019-04-30T06:47:33.178Z,21.13
2019-04-30T06:49:58.772Z,22.53
2019-04-30T06:52:29.344Z,26.83
2019-04-30T06:54:59.649Z,25.03
2019-04-30T06:57:29.489Z,23.50
2019-04-30T06:59:59.610Z,26.13
2019-04-30T07:02:30.673Z,27.33
2019-04-30T07:04:58.788Z,22.43
2019-04-30T07:07:38.440Z,21.43
2019-04-30T07:10:03.088Z,22.07
2019-04-30T07:12:41.979Z,19.17
2019-04-30T07:15:14.495Z,22.70
2019-04-30T07:17:42.762Z,17.83
2019-04-30T07:20:12.478Z,20.90
2019-04-30T07:22:49.393Z,20.10
2019-04-30T07:25:10.723Z,26.23
2019-04-30T07:27:40.174Z,21.00
2019-04-30T07:30:09.936Z,20.37
2019-04-30T07:32:38.812Z,23.13
2019-04-30T07:35:09.307Z,19.70
2019-04-30T07:37:39.084Z,22.20
2019-04-30T07:40:09.104Z,22.10
2019-04-30T07:42:44.512Z,20.27
2019-04-30T07:45:07.223Z,19.47
2019-04-30T07:47:35.578Z,21.63
2019-04-30T07:50:06.181Z,20.17
2019-04-30T07:52:35.530Z,19.67
2019-04-30T07:55:06.038Z,20.10
2019-04-30T07:57:34.313Z,18.40
2019-04-30T08:00:03.138Z,18.50
2019-04-30T08:02:37.982Z,19.30
2019-04-30T08:05:11.593Z,19.40
2019-04-30T08:07:40.053Z,18.67
2019-04-30T08:10:08.819Z,21.33
2019-04-30T08:12:41.547Z,23.43
2019-04-30T08:15:09.616Z,28.00
2019-04-30T08:17:39.739Z,26.00
2019-04-30T08:20:08.727Z,28.70
2019-04-30T08:22:37.179Z,23.73
2019-04-30T08:25:06.295Z,21.93
2019-04-30T08:27:34.589Z,24.93
2019-04-30T08:30:02.848Z,25.10
2019-04-30T08:32:31.113Z,27.10
2019-04-30T08:35:01.216Z,27.60
2019-04-30T08:37:29.384Z,26.53
2019-04-30T08:39:59.769Z,29.07
2019-04-30T08:42:31.715Z,29.80
2019-04-30T08:44:58.577Z,27.87
2019-04-30T08:47:29.111Z,28.47
2019-04-30T08:50:01.563Z,29.27
2019-04-30T08:52:27.437Z,26.07
2019-04-30T08:54:55.771Z,24.70
2019-04-30T08:57:24.120Z,27.80
2019-04-30T08:59:52.384Z,25.50
2019-04-30T09:02:20.751Z,23.83
2019-04-30T09:04:51.039Z,25.83
2019-04-30T09:07:19.666Z,25.27
2019-04-30T09:09:48.819Z,23.97
2019-04-30T09:12:19.444Z,26.27
2019-04-30T09:14:49.109Z,22.30
2019-04-30T09:17:19.680Z,21.40
2019-04-30T09:19:48.997Z,24.13
2019-04-30T09:22:19.422Z,25.97
2019-04-30T09:24:49.512Z,29.63
2019-04-30T09:27:19.324Z,28.37
2019-04-30T09:29:49.246Z,28.30
2019-04-30T09:32:19.275Z,29.30
2019-04-30T09:34:49.594Z,33.17
2019-04-30T09:37:18.693Z,29.93
2019-04-30T09:39:51.239Z,33.90
2019-04-30T09:42:19.797Z,34.83
2019-04-30T09:44:49.859Z,32.80
2019-04-30T09:47:19.919Z,31.27
2019-04-30T09:49:49.402Z,31.33
2019-04-30T09:52:19.322Z,35.40
2019-04-30T09:54:50.111Z,27.33
2019-04-30T09:57:19.372Z,22.80
2019-04-30T09:59:48.590Z,25.37
2019-04-30T10:02:18.924Z,23.57
2019-04-30T10:04:47.674Z,20.63
2019-04-30T10:07:19.375Z,19.90
2019-04-30T10:09:50.643Z,20.50
2019-04-30T10:12:19.407Z,17.80
2019-04-30T10:14:49.460Z,19.93
2019-04-30T10:17:28.528Z,13.07
2019-04-30T10:19:56.802Z,16.97
2019-04-30T10:22:49.421Z,12.07
2019-04-30T10:25:17.614Z,13.43
2019-04-30T10:27:49.785Z,16.00
2019-04-30T10:30:21.757Z,15.07
2019-04-30T10:32:51.243Z,16.50
2019-04-30T10:35:22.055Z,13.07
2019-04-30T10:37:51.411Z,14.43
2019-04-30T10:40:21.056Z,14.90
2019-04-30T10:42:49.875Z,15.50
2019-04-30T10:45:19.800Z,14.87
2019-04-30T10:47:49.199Z,13.07
2019-04-30T10:50:18.706Z,16.83
2019-04-30T10:52:49.162Z,14.80
2019-04-30T10:55:20.912Z,13.30
2019-04-30T10:57:50.559Z,14.80
2019-04-30T11:00:20.836Z,12.03
2019-04-30T11:02:49.716Z,20.47
2019-04-30T11:05:18.843Z,10.73
2019-04-30T11:07:49.505Z,13.60
2019-04-30T11:10:18.887Z,9.57
2019-04-30T11:12:47.628Z,11.40
2019-04-30T11:15:16.653Z,11.40
2019-04-30T11:17:45.125Z,14.60
2019-04-30T11:20:15.799Z,8.50
2019-04-30T11:22:45.797Z,10.27
2019-04-30T11:25:15.991Z,13.83
2019-04-30T11:27:44.945Z,10.90
2019-04-30T11:30:21.473Z,10.83
2019-04-30T11:32:43.951Z,11.50
2019-04-30T11:35:12.260Z,12.50
2019-04-30T11:37:40.539Z,13.37
2019-04-30T11:40:09.251Z,14.50
2019-04-30T11:42:37.515Z,13.97
2019-04-30T11:45:08.936Z,20.10
2019-04-30T11:47:38.717Z,16.00
2019-04-30T11:50:11.652Z,15.07
2019-04-30T11:52:40.017Z,15.73
2019-04-30T11:55:09.761Z,17.03
2019-04-30T11:57:39.779Z,17.37
2019-04-30T12:00:11.113Z,16.03
2019-04-30T12:02:41.252Z,14.80
2019-04-30T12:05:09.942Z,12.27
2019-04-30T12:07:39.938Z,15.97
2019-04-30T12:10:12.808Z,14.70
2019-04-30T12:12:41.079Z,12.23
2019-04-30T12:15:09.443Z,13.17
2019-04-30T12:17:37.706Z,14.17
2019-04-30T12:20:08.630Z,12.70
2019-04-30T12:22:37.312Z,11.10
2019-04-30T12:25:05.636Z,11.93
2019-04-30T12:27:34.175Z,14.43
2019-04-30T12:30:03.057Z,11.90
2019-04-30T12:32:31.426Z,13.47
2019-04-30T12:35:00.113Z,15.97
2019-04-30T12:37:29.095Z,16.47
2019-04-30T12:39:59.360Z,19.50
2019-04-30T12:42:28.693Z,14.13
2019-04-30T12:44:56.999Z,14.23
2019-04-30T12:47:26.921Z,14.33
2019-04-30T12:49:56.859Z,13.93
2019-04-30T12:52:27.131Z,12.40
2019-04-30T12:54:59.731Z,14.37
2019-04-30T12:57:32.987Z,14.80
2019-04-30T13:00:01.264Z,14.70
2019-04-30T13:02:29.519Z,15.60
2019-04-30T13:05:00.318Z,12.57
2019-04-30T13:07:30.360Z,14.67
2019-04-30T13:10:00.329Z,12.67
2019-04-30T13:12:28.252Z,11.63
2019-04-30T13:14:56.923Z,13.00
2019-04-30T13:17:25.280Z,13.57
2019-04-30T13:19:53.648Z,14.93
2019-04-30T13:22:29.404Z,11.93
2019-04-30T13:24:59.592Z,12.33
2019-04-30T13:27:29.744Z,11.93
2019-04-30T13:29:59.725Z,11.63
2019-04-30T13:32:32.716Z,13.00
2019-04-30T13:35:01.262Z,14.33
2019-04-30T13:37:32.379Z,17.13
2019-04-30T13:42:51.705Z,14.20
2019-04-30T13:45:20.799Z,13.27
2019-04-30T13:47:49.267Z,13.17
2019-04-30T13:50:19.679Z,14.67
2019-04-30T13:52:48.857Z,15.17
2019-04-30T13:55:19.079Z,14.77
2019-04-30T13:57:47.348Z,13.43
2019-04-30T14:00:23.200Z,14.57
2019-04-30T14:02:53.197Z,12.57
2019-04-30T14:05:21.473Z,15.93
2019-04-30T14:08:03.686Z,12.77
2019-04-30T14:10:33.613Z,14.27
2019-04-30T14:13:03.583Z,14.13
2019-04-30T14:15:31.961Z,15.20
2019-04-30T14:18:00.322Z,16.10
2019-04-30T14:20:28.691Z,15.20
2019-04-30T14:22:57.580Z,13.27
2019-04-30T14:25:26.189Z,13.27
2019-04-30T14:27:54.912Z,14.77
2019-04-30T14:30:23.694Z,14.37
2019-04-30T14:32:51.990Z,17.77
2019-04-30T14:35:20.328Z,13.63
2019-04-30T14:37:49.640Z,16.47
2019-04-30T14:40:20.262Z,19.10
2019-04-30T14:42:59.756Z,16.57
2019-04-30T14:45:30.565Z,18.30
2019-04-30T14:48:08.284Z,18.53
2019-04-30T14:50:38.572Z,17.43
2019-04-30T14:53:12.103Z,16.00
2019-04-30T14:55:42.004Z,17.17
2019-04-30T14:58:29.336Z,19.33
2019-04-30T15:00:59.507Z,18.63
2019-04-30T15:03:32.060Z,18.07
2019-04-30T15:06:00.423Z,15.93
2019-04-30T15:08:29.289Z,15.17
2019-04-30T15:10:57.908Z,13.43
2019-04-30T15:13:26.196Z,16.97
2019-04-30T15:15:54.463Z,15.30
2019-04-30T15:18:23.027Z,16.73
2019-04-30T15:20:51.364Z,15.03
2019-04-30T15:23:21.888Z,14.38
2019-04-30T15:25:52.321Z,12.30
2019-04-30T15:28:20.614Z,15.27
2019-04-30T15:30:48.937Z,10.77
2019-04-30T15:33:18.893Z,12.27
2019-04-30T15:35:48.192Z,13.33
2019-04-30T15:38:19.259Z,14.73
2019-04-30T15:40:47.512Z,17.53
2019-04-30T15:43:15.862Z,13.77
2019-04-30T15:45:44.127Z,11.23
2019-04-30T15:48:12.384Z,12.77
2019-04-30T15:50:40.679Z,15.47
2019-04-30T15:53:09.461Z,12.87
2019-04-30T15:55:37.951Z,15.53
2019-04-30T15:58:09.379Z,14.80
2019-04-30T16:00:39.359Z,13.43
2019-04-30T16:03:15.687Z,15.63
2019-04-30T16:05:48.628Z,13.20
2019-04-30T16:08:19.036Z,13.37
2019-04-30T16:11:07.090Z,15.23
2019-04-30T16:13:53.389Z,17.70
2019-04-30T16:16:22.153Z,15.07
2019-04-30T16:18:50.587Z,15.20
2019-04-30T16:21:19.338Z,15.57
2019-04-30T16:23:49.036Z,15.33
2019-04-30T16:26:17.735Z,14.53
2019-04-30T16:28:45.995Z,16.23
2019-04-30T16:31:14.641Z,16.63
2019-04-30T16:33:42.905Z,14.57
2019-04-30T16:36:11.172Z,18.07
2019-04-30T16:38:39.491Z,16.03
2019-04-30T16:41:08.887Z,15.10
2019-04-30T16:43:38.829Z,16.40
2019-04-30T16:46:07.325Z,13.67
2019-04-30T16:48:35.581Z,16.07
2019-04-30T16:51:03.831Z,14.43
2019-04-30T16:53:32.259Z,13.63
2019-04-30T16:56:00.524Z,11.83
2019-04-30T16:58:30.419Z,16.40
2019-04-30T17:00:59.371Z,14.63
2019-04-30T17:03:44.889Z,12.83
2019-04-30T17:06:17.502Z,12.07
2019-04-30T17:08:50.423Z,13.87
2019-04-30T17:11:38.592Z,11.43
2019-04-30T17:14:07.783Z,12.33
2019-04-30T17:16:36.051Z,12.93
2019-04-30T17:19:04.329Z,12.80
2019-04-30T17:21:32.587Z,13.53
2019-04-30T17:24:00.847Z,13.43
2019-04-30T17:26:29.133Z,10.20
2019-04-30T17:28:59.727Z,8.43
2019-04-30T17:31:27.713Z,10.07
2019-04-30T17:33:55.995Z,11.33
2019-04-30T17:36:24.266Z,10.73
2019-04-30T17:38:52.519Z,15.00
2019-04-30T17:41:21.060Z,11.97
2019-04-30T17:43:49.647Z,8.53
2019-04-30T17:46:20.030Z,11.30
2019-04-30T17:48:49.544Z,7.23
2019-04-30T17:51:18.451Z,9.90
2019-04-30T17:54:04.475Z,7.20
2019-04-30T17:56:33.044Z,10.47
2019-04-30T17:59:01.299Z,7.40
2019-04-30T18:01:29.643Z,9.13
2019-04-30T18:03:58.818Z,8.27
2019-04-30T18:06:27.250Z,8.27
2019-04-30T18:08:55.530Z,10.43
2019-04-30T18:11:23.792Z,8.30
2019-04-30T18:13:52.061Z,11.77
2019-04-30T18:16:20.420Z,11.27
2019-04-30T18:19:08.666Z,9.87
2019-04-30T18:21:50.558Z,7.47
2019-04-30T18:24:20.531Z,10.23
2019-04-30T18:26:59.535Z,11.10
2019-04-30T18:29:27.889Z,9.53
2019-04-30T18:31:56.152Z,9.83
2019-04-30T18:34:24.426Z,10.13
2019-04-30T18:36:52.693Z,9.37
2019-04-30T18:39:20.991Z,6.10
2019-04-30T18:41:49.359Z,8.83
2019-04-30T18:44:19.489Z,8.17
2019-04-30T18:46:49.314Z,7.27
2019-04-30T18:49:18.758Z,8.97
2019-04-30T18:51:49.128Z,8.33
2019-04-30T18:54:18.376Z,8.87
2019-04-30T18:56:48.941Z,8.73
2019-04-30T18:59:17.167Z,7.10
2019-04-30T19:01:46.500Z,8.23
2019-04-30T19:04:14.819Z,9.90
2019-04-30T19:06:43.084Z,11.33
2019-04-30T19:09:15.986Z,7.20
2019-04-30T19:11:54.839Z,6.83
2019-04-30T19:14:29.381Z,6.90
2019-04-30T19:17:07.018Z,7.57
2019-04-30T19:19:45.895Z,7.83
2019-04-30T19:22:14.156Z,9.13
2019-04-30T19:24:53.347Z,9.87
2019-04-30T19:27:12.482Z,10.23
2019-04-30T19:29:40.760Z,7.87
2019-04-30T19:32:09.500Z,11.77
2019-04-30T19:34:39.028Z,10.57
2019-04-30T19:37:08.683Z,9.67
2019-04-30T19:39:39.118Z,9.37
2019-04-30T19:42:09.075Z,8.13
2019-04-30T19:44:39.274Z,11.17
2019-04-30T19:47:09.175Z,12.47
2019-04-30T19:49:38.978Z,12.07
2019-04-30T19:52:09.502Z,15.93
2019-04-30T19:54:39.177Z,12.60
2019-04-30T19:57:07.255Z,13.73
2019-04-30T19:59:35.536Z,13.40
2019-04-30T20:02:03.792Z,11.67
2019-04-30T20:04:35.652Z,18.97
2019-04-30T20:07:02.054Z,20.77
2019-04-30T20:09:30.320Z,22.07
2019-04-30T20:11:59.744Z,21.60
2019-04-30T20:14:29.275Z,21.60
2019-04-30T20:16:59.197Z,23.00
2019-04-30T20:19:28.946Z,29.77
2019-04-30T20:21:59.466Z,23.53
2019-04-30T20:24:29.356Z,23.57
2019-04-30T20:27:04.937Z,26.47
2019-04-30T20:29:28.939Z,27.50
2019-04-30T20:31:59.313Z,27.13
2019-04-30T20:34:29.271Z,29.90
2019-04-30T20:36:58.320Z,32.73
2019-04-30T20:39:29.385Z,29.53
2019-04-30T20:41:57.711Z,30.07
2019-04-30T20:44:26.006Z,32.97
2019-04-30T20:46:54.270Z,30.63
2019-04-30T20:49:22.907Z,33.93
2019-04-30T20:51:55.038Z,28.93
2019-04-30T20:54:22.616Z,32.10
2019-04-30T20:56:52.047Z,37.70
2019-04-30T20:59:21.653Z,31.40
2019-04-30T21:01:49.917Z,31.90
2019-04-30T21:04:20.808Z,32.53
2019-04-30T21:06:49.640Z,33.97
2019-04-30T21:09:18.104Z,33.63
2019-04-30T21:11:46.372Z,33.20
2019-04-30T21:14:14.666Z,31.57
2019-04-30T21:16:43.353Z,32.13
2019-04-30T21:19:11.691Z,31.57
2019-04-30T21:21:39.984Z,33.97
2019-04-30T21:24:08.241Z,33.93
2019-04-30T21:26:36.867Z,32.27
2019-04-30T21:29:13.632Z,34.80
2019-04-30T21:31:42.673Z,35.20
2019-04-30T21:34:29.397Z,33.50
2019-04-30T21:36:59.701Z,32.67
2019-04-30T21:39:28.256Z,31.73
2019-04-30T21:41:56.531Z,32.93
2019-04-30T21:44:24.799Z,29.27
2019-04-30T21:46:53.135Z,29.53
2019-04-30T21:49:21.428Z,30.33
2019-04-30T21:51:49.698Z,32.80
2019-04-30T21:54:17.958Z,29.30
2019-04-30T21:56:46.269Z,29.00
2019-04-30T21:59:24.252Z,35.70
2019-04-30T22:01:45.491Z,31.77
2019-04-30T22:04:13.840Z,32.43
2019-04-30T22:06:42.586Z,30.77
2019-04-30T22:09:10.992Z,33.73
2019-04-30T22:11:39.564Z,29.17
2019-04-30T22:14:08.280Z,28.73
2019-04-30T22:16:36.615Z,30.30
2019-04-30T22:19:04.907Z,29.40
2019-04-30T22:21:33.183Z,29.57
2019-04-30T22:24:01.505Z,30.67
2019-04-30T22:26:29.781Z,34.37
2019-04-30T22:28:59.310Z,32.50
2019-04-30T22:31:29.505Z,28.13
2019-04-30T22:33:58.947Z,28.13
2019-04-30T22:36:29.211Z,29.23
2019-04-30T22:39:15.343Z,31.37
2019-04-30T22:41:43.679Z,30.67
2019-04-30T22:44:11.947Z,32.50
2019-04-30T22:46:40.223Z,34.30
2019-04-30T22:49:08.494Z,31.20
2019-04-30T22:51:36.757Z,29.80
2019-04-30T22:54:05.051Z,29.13
2019-04-30T22:56:33.395Z,33.73
2019-04-30T22:59:01.662Z,28.53
2019-04-30T23:01:40.595Z,34.70
2019-04-30T23:04:13.399Z,30.83
2019-04-30T23:06:41.671Z,30.70
2019-04-30T23:09:11.596Z,36.23
2019-04-30T23:11:39.994Z,30.87
2019-04-30T23:14:08.255Z,34.73
2019-04-30T23:16:36.535Z,34.23
2019-04-30T23:19:04.874Z,34.60
2019-04-30T23:21:33.211Z,36.80
2019-04-30T23:24:01.514Z,37.70
2019-04-30T23:26:29.855Z,36.17
2019-04-30T23:28:59.361Z,36.97
2019-04-30T23:31:27.657Z,37.83
2019-04-30T23:33:56.286Z,34.40
2019-04-30T23:36:25.817Z,35.50
2019-04-30T23:38:54.167Z,33.83
2019-04-30T23:41:22.752Z,35.17
2019-04-30T23:43:51.011Z,36.83
2019-04-30T23:46:19.294Z,36.07
2019-04-30T23:48:47.635Z,34.80
2019-04-30T23:51:15.891Z,37.47
2019-04-30T23:53:44.182Z,37.77
2019-04-30T23:56:12.597Z,34.30
2019-04-30T23:58:40.937Z,35.57
